Time;durP1;ratioP1;P1;durP2;ratioP2;P2;SDS_P1;SDS_P2;PMS_P1;PMS_P2;Temp;Humidity;BMP_temperature;BMP_pressure;BME280_temperature;BME280_humidity;BME280_pressure;Samples;Min_cycle;Max_cycle;Signal;HPM_P1;HPM_P2
2022/04/24 00:01:24;;;;;;;;;21.00;19.00;;;;;15.76;56.28;99227.25;5076614;27;45957;-62
2022/04/24 00:03:49;;;;;;;;;20.00;20.00;;;;;15.74;55.84;99225.69;5092398;27;45560;-60
2022/04/24 00:06:15;;;;;;;;;21.00;19.00;;;;;15.67;56.07;99219.28;5076845;27;45822;-61
2022/04/24 00:08:40;;;;;;;;;22.33;20.33;;;;;15.57;56.58;99224.66;5073389;28;45366;-61
2022/04/24 00:11:05;;;;;;;;;21.00;21.00;;;;;15.47;57.21;99213.16;5075647;27;45370;-61
2022/04/24 00:13:37;;;;;;;;;21.33;18.00;;;;;15.41;57.51;99201.22;5074358;28;45390;-60
2022/04/24 00:16:03;;;;;;;;;20.33;18.00;;;;;15.43;57.37;99209.09;5074649;28;45779;-60
2022/04/24 00:18:28;;;;;;;;;24.33;21.00;;;;;15.48;57.04;99206.81;5074051;27;45618;-61
2022/04/24 00:20:53;;;;;;;;;20.33;19.33;;;;;15.43;57.14;99207.25;5078252;27;46497;-61
2022/04/24 00:23:19;;;;;;;;;22.33;20.67;;;;;15.35;57.87;99209.84;5094020;27;45555;-61
2022/04/24 00:25:45;;;;;;;;;20.33;19.67;;;;;15.33;58.09;99210.00;5089644;27;45607;-61
2022/04/24 00:28:11;;;;;;;;;18.00;18.00;;;;;15.29;57.74;99216.66;5071791;28;45536;-61
2022/04/24 00:30:36;;;;;;;;;21.67;19.00;;;;;15.28;57.85;99211.44;5076459;27;46655;-62
2022/04/24 00:33:02;;;;;;;;;17.33;17.33;;;;;15.22;58.37;99212.03;5074729;27;45347;-62
2022/04/24 00:35:31;;;;;;;;;15.67;15.67;;;;;15.21;58.09;99219.22;5079688;28;45362;-59
2022/04/24 00:37:57;;;;;;;;;21.67;20.00;;;;;15.16;58.26;99212.63;5079743;28;45527;-61
2022/04/24 00:40:23;;;;;;;;;21.33;19.00;;;;;15.20;58.36;99214.84;5077333;27;45463;-63
2022/04/24 00:42:49;;;;;;;;;22.67;18.67;;;;;15.19;58.53;99217.69;5080422;27;45767;-61
2022/04/24 00:45:15;;;;;;;;;16.00;16.00;;;;;15.16;58.13;99223.34;5081035;27;45408;-60
2022/04/24 00:47:44;;;;;;;;;19.33;17.33;;;;;15.12;58.23;99219.28;5096326;27;45410;-61
2022/04/24 00:50:10;;;;;;;;;18.00;14.33;;;;;15.03;58.16;99208.47;5094908;27;45389;-60
2022/04/24 00:52:37;;;;;;;;;20.33;17.00;;;;;14.96;58.38;99207.34;5075520;27;45284;-60
2022/04/24 00:55:04;;;;;;;;;20.00;19.00;;;;;14.93;58.17;99218.38;5076552;27;45401;-61
2022/04/24 00:57:29;;;;;;;;;20.67;19.33;;;;;14.93;58.60;99225.56;5077489;27;45443;-58
2022/04/24 00:59:55;;;;;;;;;22.67;18.33;;;;;14.79;58.91;99221.53;5079211;27;46094;-60
2022/04/24 01:02:20;;;;;;;;;22.25;20.00;;;;;14.73;58.87;99217.59;5076642;27;45424;-61
2022/04/24 01:04:46;;;;;;;;;19.00;18.67;;;;;14.75;58.89;99220.97;5094657;27;45442;-60
2022/04/24 01:07:11;;;;;;;;;19.33;19.33;;;;;14.63;59.25;99199.88;5078794;27;45531;-61
2022/04/24 01:09:37;;;;;;;;;19.33;17.00;;;;;14.55;58.90;99197.94;5077698;27;46149;-60
2022/04/24 01:12:04;;;;;;;;;21.75;20.75;;;;;14.68;59.53;99224.38;5072239;27;45386;-60
2022/04/24 01:14:30;;;;;;;;;22.25;18.75;;;;;14.61;59.28;99225.94;5059929;28;45236;-59
2022/04/24 01:16:57;;;;;;;;;19.33;19.33;;;;;14.58;60.26;99223.53;5079129;27;45334;-61
2022/04/24 01:19:24;;;;;;;;;18.33;18.33;;;;;14.58;60.06;99228.91;5077988;27;45203;-60
2022/04/24 01:21:50;;;;;;;;;18.00;17.00;;;;;14.55;59.80;99238.06;5076336;27;45587;-59
2022/04/24 01:24:21;;;;;;;;;21.50;18.25;;;;;14.54;59.30;99238.22;5078269;27;45469;-60
2022/04/24 01:26:47;;;;;;;;;19.67;18.33;;;;;14.53;60.25;99245.38;5076766;27;45318;-61
2022/04/24 01:29:14;;;;;;;;;19.00;18.00;;;;;14.47;59.85;99237.94;5078575;27;45253;-61
2022/04/24 01:31:41;;;;;;;;;18.67;18.33;;;;;14.35;59.64;99229.22;5074050;27;45431;-61
2022/04/24 01:34:07;;;;;;;;;19.25;17.50;;;;;14.47;59.64;99237.94;5076282;27;45419;-60
2022/04/24 01:36:33;;;;;;;;;22.25;19.50;;;;;14.39;59.85;99241.31;5078816;27;45583;-62
2022/04/24 01:38:59;;;;;;;;;18.00;15.33;;;;;14.33;59.72;99235.69;5094972;27;46837;-62
2022/04/24 01:41:24;;;;;;;;;20.75;18.00;;;;;14.26;59.94;99240.75;5079779;27;45268;-61
2022/04/24 01:43:50;;;;;;;;;17.00;17.00;;;;;14.31;59.77;99256.34;5076990;27;45246;-60
2022/04/24 01:46:15;;;;;;;;;18.33;17.33;;;;;14.23;59.54;99243.72;5076037;28;45344;-60
2022/04/24 01:48:41;;;;;;;;;19.00;18.00;;;;;14.29;59.40;99253.00;5077435;27;46785;-60
2022/04/24 01:51:08;;;;;;;;;17.33;17.00;;;;;14.29;60.23;99251.16;5078702;27;45326;-61
2022/04/24 01:53:34;;;;;;;;;19.33;15.00;;;;;14.28;59.71;99248.63;5077973;27;45430;-61
2022/04/24 01:56:03;;;;;;;;;16.00;16.00;;;;;14.21;58.89;99236.84;5077055;27;45520;-59
2022/04/24 01:58:28;;;;;;;;;18.67;15.67;;;;;14.22;59.67;99255.41;5078294;27;46159;-61
2022/04/24 02:00:54;;;;;;;;;18.50;17.25;;;;;14.13;60.35;99251.75;5075919;27;45430;-61
2022/04/24 02:03:21;;;;;;;;;21.50;18.75;;;;;14.17;59.60;99262.97;5078324;27;45297;-60
2022/04/24 02:05:48;;;;;;;;;16.25;14.00;;;;;14.00;59.32;99240.47;5077102;27;45469;-60
2022/04/24 02:08:14;;;;;;;;;16.33;16.33;;;;;14.08;59.59;99251.31;5093184;27;46361;-61
2022/04/24 02:10:40;;;;;;;;;19.00;19.00;;;;;14.15;59.52;99260.44;5077949;27;45410;-60
2022/04/24 02:13:05;;;;;;;;;22.00;17.67;;;;;14.13;59.81;99259.75;5077868;27;45401;-60
2022/04/24 02:15:31;;;;;;;;;17.33;17.33;;;;;14.16;59.73;99272.84;5075531;27;45618;-60
2022/04/24 02:17:57;;;;;;;;;21.50;17.75;;;;;14.03;59.32;99256.22;5076296;27;45388;-60
2022/04/24 02:20:23;;;;;;;;;14.50;14.00;;;;;14.03;59.87;99266.94;5093068;27;45473;-60
2022/04/24 02:22:49;;;;;;;;;21.00;17.25;;;;;14.00;59.79;99267.22;5076519;28;45386;-61
2022/04/24 02:25:15;;;;;;;;;21.00;16.25;;;;;14.02;59.56;99275.94;5067811;27;45564;-63
2022/04/24 02:27:42;;;;;;;;;19.33;14.67;;;;;13.97;59.89;99277.34;5074617;27;46910;-61
2022/04/24 02:30:08;;;;;;;;;21.67;15.00;;;;;13.94;59.86;99278.47;5078565;27;45245;-61
2022/04/24 02:32:34;;;;;;;;;16.50;15.25;;;;;13.78;59.56;99260.28;5077398;27;45352;-59
2022/04/24 02:34:59;;;;;;;;;20.25;18.50;;;;;13.89;59.37;99272.69;5075501;27;45508;-59
2022/04/24 02:37:27;;;;;;;;;18.50;18.50;;;;;13.94;59.64;99281.16;5077688;27;46151;-61
2022/04/24 02:39:53;;;;;;;;;19.00;18.25;;;;;13.91;59.87;99273.38;5093222;27;45430;-60
2022/04/24 02:42:19;;;;;;;;;16.50;16.50;;;;;13.90;59.18;99282.38;5076726;27;45475;-60
2022/04/24 02:44:44;;;;;;;;;19.50;18.25;;;;;13.91;59.46;99285.91;5091233;27;45761;-61
2022/04/24 02:47:10;;;;;;;;;11.75;11.25;;;;;13.81;59.53;99269.88;5077199;27;46302;-60
2022/04/24 02:49:39;;;;;;;;;18.75;14.50;;;;;13.83;59.78;99275.94;5077928;27;45459;-61
2022/04/24 02:52:04;;;;;;;;;17.00;17.00;;;;;13.87;59.03;99283.53;5077660;27;45417;-62
2022/04/24 02:54:30;;;;;;;;;16.00;15.00;;;;;13.78;59.46;99281.66;5059509;27;45341;-61
2022/04/24 02:56:55;;;;;;;;;16.75;16.00;;;;;13.75;59.38;99273.09;5075465;28;47571;-61
2022/04/24 02:59:21;;;;;;;;;20.33;17.33;;;;;13.79;59.67;99294.03;5076978;27;45442;-61
2022/04/24 03:01:46;;;;;;;;;22.50;18.75;;;;;13.76;59.86;99297.00;5077034;27;45396;-61
2022/04/24 03:04:12;;;;;;;;;16.75;16.75;;;;;13.74;59.79;99290.09;5075314;27;45574;-60
2022/04/24 03:06:38;;;;;;;;;18.75;16.75;;;;;13.69;59.28;99279.84;5076927;27;46123;-60
2022/04/24 03:09:05;;;;;;;;;15.75;15.75;;;;;13.75;59.95;99294.47;5075718;28;45438;-62
2022/04/24 03:11:31;;;;;;;;;17.25;17.00;;;;;13.80;59.52;99298.44;5074301;28;45834;-60
2022/04/24 03:13:56;;;;;;;;;20.50;17.00;;;;;13.84;59.63;99296.31;5076009;27;45574;-60
2022/04/24 03:16:22;;;;;;;;;22.33;17.00;;;;;13.85;59.21;99303.34;5076802;27;45285;-60
2022/04/24 03:18:47;;;;;;;;;22.25;16.25;;;;;13.83;59.50;99300.81;5076413;27;45306;-60
2022/04/24 03:21:13;;;;;;;;;17.50;17.25;;;;;13.53;59.20;99248.28;5075736;27;45327;-61
2022/04/24 03:23:39;;;;;;;;;21.75;21.25;;;;;13.74;59.47;99306.13;5070081;27;45302;-61
2022/04/24 03:26:04;;;;;;;;;16.50;15.50;;;;;13.66;59.31;99305.97;5056599;28;46075;-61
2022/04/24 03:28:30;;;;;;;;;19.50;18.00;;;;;13.60;59.49;99303.84;5056918;28;45465;-61
2022/04/24 03:30:55;;;;;;;;;21.50;18.25;;;;;13.40;59.74;99290.44;5055961;28;45391;-61
2022/04/24 03:33:21;;;;;;;;;22.50;21.75;;;;;13.43;60.22;99308.03;5066502;28;45479;-61
2022/04/24 03:35:49;;;;;;;;;21.25;17.00;;;;;13.15;59.89;99285.50;5073558;27;46250;-60
2022/04/24 03:38:15;;;;;;;;;20.75;17.75;;;;;13.23;60.40;99307.94;5076687;27;45346;-60
2022/04/24 03:40:40;;;;;;;;;20.50;16.75;;;;;13.39;60.46;99318.13;5076543;27;45243;-60
2022/04/24 03:43:05;;;;;;;;;17.25;16.00;;;;;13.44;60.08;99318.56;5074512;27;45216;-61
2022/04/24 03:45:31;;;;;;;;;21.50;18.25;;;;;13.43;60.30;99308.88;5072924;27;45911;-58
2022/04/24 03:47:57;;;;;;;;;21.00;17.50;;;;;13.43;59.51;99298.19;5075926;27;45739;-60
2022/04/24 03:50:22;;;;;;;;;22.25;19.25;;;;;13.54;60.27;99316.78;5075728;27;45496;-60
2022/04/24 03:52:48;;;;;;;;;18.75;16.50;;;;;13.58;59.28;99309.34;5076707;27;45263;-60
2022/04/24 03:55:14;;;;;;;;;14.75;14.50;;;;;13.51;59.83;99318.84;5075452;27;46162;-60
2022/04/24 03:57:39;;;;;;;;;15.25;13.75;;;;;13.51;59.61;99319.72;5079032;27;45349;-61
2022/04/24 04:00:07;;;;;;;;;19.25;19.25;;;;;13.50;59.02;99318.00;5079226;27;45460;-60
2022/04/24 04:02:44;;;;;;;;;21.75;20.25;;;;;13.49;59.35;99319.00;5080428;27;45457;-60
2022/04/24 04:05:10;;;;;;;;;19.25;17.00;;;;;13.46;59.71;99316.59;5087014;27;46096;-60
2022/04/24 04:07:35;;;;;;;;;13.50;12.50;;;;;13.41;59.38;99297.50;5059700;27;45351;-59
2022/04/24 04:10:00;;;;;;;;;24.50;22.00;;;;;13.51;59.67;99326.88;5059835;28;45229;-59
2022/04/24 04:12:27;;;;;;;;;17.50;17.00;;;;;13.40;59.76;99327.81;5060008;28;46050;-61
2022/04/24 04:14:53;;;;;;;;;17.00;13.50;;;;;13.41;59.74;99331.31;5075074;27;45514;-60
2022/04/24 04:17:18;;;;;;;;;22.75;21.50;;;;;13.35;59.70;99332.72;5078760;28;46050;-59
2022/04/24 04:19:44;;;;;;;;;20.50;18.25;;;;;13.30;59.74;99326.09;5095930;27;45734;-60
2022/04/24 04:22:09;;;;;;;;;20.75;20.75;;;;;13.35;59.95;99334.56;5079820;27;45363;-60
2022/04/24 04:24:34;;;;;;;;;19.00;14.50;;;;;13.33;59.86;99321.34;5077645;27;45377;-60
2022/04/24 04:27:00;;;;;;;;;18.00;16.50;;;;;13.31;59.60;99317.97;5078406;27;45476;-65
2022/04/24 04:29:26;;;;;;;;;18.75;16.75;;;;;13.32;59.87;99314.31;5079720;27;45432;-61
2022/04/24 04:31:51;;;;;;;;;15.67;14.00;;;;;13.48;58.94;99341.34;5079022;27;45371;-60
2022/04/24 04:34:17;;;;;;;;;16.00;16.00;;;;;13.47;59.61;99334.31;5069015;28;46589;-59
2022/04/24 04:36:42;;;;;;;;;15.67;14.00;;;;;13.46;59.18;99337.13;5088737;27;45532;-59
2022/04/24 04:39:08;;;;;;;;;18.50;18.00;;;;;13.41;58.87;99324.19;5072178;28;45552;-61
2022/04/24 04:41:33;;;;;;;;;16.00;15.50;;;;;13.47;58.57;99338.81;5070341;28;45557;-60
2022/04/24 04:44:00;;;;;;;;;16.75;16.50;;;;;13.55;58.94;99349.69;5078609;27;45540;-61
2022/04/24 04:46:26;;;;;;;;;17.25;16.00;;;;;13.49;58.88;99328.84;5079337;27;45238;-60
2022/04/24 04:48:52;;;;;;;;;21.50;21.50;;;;;13.46;58.73;99343.31;5078760;27;45568;-61
2022/04/24 04:51:17;;;;;;;;;22.75;20.00;;;;;13.46;58.45;99339.78;5090347;27;45226;-60
2022/04/24 04:53:43;;;;;;;;;24.00;19.33;;;;;13.48;59.08;99340.50;5096196;27;46123;-60
2022/04/24 04:56:08;;;;;;;;;19.67;17.33;;;;;13.57;58.43;99345.88;5085130;27;45188;-60
2022/04/24 04:58:34;;;;;;;;;20.00;17.00;;;;;13.59;58.75;99353.75;5059140;28;45397;-63
2022/04/24 05:01:00;;;;;;;;;18.25;18.25;;;;;13.58;58.51;99358.25;5069302;27;45393;-60
2022/04/24 05:03:26;;;;;;;;;21.75;19.25;;;;;13.52;58.68;99349.94;5089833;27;45369;-63
2022/04/24 05:05:51;;;;;;;;;25.00;20.50;;;;;13.47;58.63;99353.00;5080283;27;45336;-61
2022/04/24 05:08:17;;;;;;;;;23.25;19.25;;;;;13.51;58.69;99365.09;5095261;27;45562;-61
2022/04/24 05:10:42;;;;;;;;;23.50;21.75;;;;;13.50;59.20;99360.75;5099502;27;45388;-60
2022/04/24 05:13:07;;;;;;;;;22.50;15.50;;;;;13.41;58.56;99345.56;5086337;27;45404;-61
2022/04/24 05:15:33;;;;;;;;;19.75;16.50;;;;;13.54;58.37;99377.34;5058189;28;45387;-61
2022/04/24 05:17:58;;;;;;;;;21.00;18.25;;;;;13.58;58.54;99378.78;5080712;27;45437;-61
2022/04/24 05:20:24;;;;;;;;;23.00;21.75;;;;;13.58;58.57;99390.31;5086380;27;45437;-60
2022/04/24 05:22:49;;;;;;;;;24.00;20.75;;;;;13.58;59.26;99387.66;5078332;27;46040;-59
2022/04/24 05:25:15;;;;;;;;;21.00;16.75;;;;;13.55;59.27;99397.75;5078691;27;45452;-59
2022/04/24 05:27:41;;;;;;;;;21.50;21.00;;;;;13.60;58.72;99392.00;5066667;27;45303;-60
2022/04/24 05:30:08;;;;;;;;;19.00;18.75;;;;;13.57;58.99;99385.97;5065192;27;45240;-61
2022/04/24 05:32:40;;;;;;;;;23.00;21.50;;;;;13.52;58.69;99396.19;5075306;27;45403;-60
2022/04/24 05:35:07;;;;;;;;;21.00;15.50;;;;;13.49;59.52;99401.78;5068702;28;45664;-60
2022/04/24 05:37:32;;;;;;;;;23.75;22.00;;;;;13.45;59.53;99395.03;5089375;27;45395;-60
2022/04/24 05:39:58;;;;;;;;;18.00;16.75;;;;;13.45;59.34;99395.03;5074049;27;45476;-60
2022/04/24 05:42:23;;;;;;;;;21.00;19.75;;;;;13.54;58.97;99410.28;5077971;27;45373;-60
2022/04/24 05:44:48;;;;;;;;;20.25;20.25;;;;;13.63;59.24;99405.94;5073936;27;45500;-60
2022/04/24 05:47:14;;;;;;;;;22.25;20.00;;;;;13.55;59.00;99406.63;5075518;27;45576;-62
2022/04/24 05:49:39;;;;;;;;;23.50;21.25;;;;;13.61;59.38;99417.75;5071863;27;45595;-60
2022/04/24 05:52:05;;;;;;;;;20.75;18.50;;;;;13.57;58.88;99414.50;5066338;28;45386;-61
2022/04/24 05:54:30;;;;;;;;;20.25;20.00;;;;;13.51;59.03;99418.53;5077756;27;45631;-61
2022/04/24 05:56:56;;;;;;;;;22.50;22.50;;;;;13.43;59.32;99418.38;5076519;28;45472;-59
2022/04/24 05:59:21;;;;;;;;;23.50;21.75;;;;;13.40;59.71;99423.94;5075942;27;45392;-60
2022/04/24 06:01:46;;;;;;;;;21.00;21.00;;;;;13.45;59.86;99432.44;5076444;27;45347;-59
2022/04/24 06:04:12;;;;;;;;;26.25;19.75;;;;;13.51;59.93;99425.69;5078123;27;45500;-60
2022/04/24 06:06:37;;;;;;;;;23.25;22.00;;;;;13.44;59.60;99428.06;5078607;27;45353;-61
2022/04/24 06:09:03;;;;;;;;;24.00;23.75;;;;;13.45;59.29;99424.41;5090228;27;45603;-60
2022/04/24 06:11:28;;;;;;;;;24.25;21.00;;;;;13.44;59.86;99422.72;5072157;28;46851;-61
2022/04/24 06:13:53;;;;;;;;;30.75;25.50;;;;;13.53;59.79;99429.06;5077255;27;45844;-59
2022/04/24 06:16:19;;;;;;;;;29.25;27.50;;;;;13.53;59.79;99427.25;5074253;27;45927;-61
2022/04/24 06:18:44;;;;;;;;;27.75;24.25;;;;;13.69;59.10;99434.81;5074249;28;45444;-62
2022/04/24 06:21:10;;;;;;;;;31.50;24.50;;;;;13.72;58.65;99431.00;5074298;28;45526;-60
2022/04/24 06:23:35;;;;;;;;;30.75;23.50;;;;;13.65;58.98;99429.84;5093972;27;46083;-59
2022/04/24 06:26:01;;;;;;;;;30.25;25.00;;;;;13.67;59.02;99433.22;5077674;27;45374;-60
2022/04/24 06:28:26;;;;;;;;;22.25;21.25;;;;;13.72;59.08;99431.00;5077571;27;45322;-60
2022/04/24 06:30:52;;;;;;;;;27.25;24.50;;;;;13.76;58.72;99437.78;5076097;27;45540;-61
2022/04/24 06:33:21;;;;;;;;;28.00;24.75;;;;;13.72;59.18;99449.72;5076883;27;45369;-61
2022/04/24 06:35:46;;;;;;;;;24.75;24.00;;;;;13.65;59.09;99443.19;5064289;27;45373;-60
2022/04/24 06:38:11;;;;;;;;;23.50;23.50;;;;;13.77;58.97;99447.47;5075978;27;45476;-67
2022/04/24 06:40:37;;;;;;;;;23.75;23.75;;;;;13.82;58.86;99454.13;5074108;28;46040;-60
2022/04/24 06:43:05;;;;;;;;;25.75;24.25;;;;;13.92;58.33;99446.13;5069412;28;45534;-61
2022/04/24 06:45:38;;;;;;;;;38.75;33.75;;;;;13.99;57.96;99457.97;5078250;27;45768;-61
2022/04/24 06:48:06;;;;;;;;;30.75;25.00;;;;;13.99;57.73;99447.28;5064033;27;45441;-60
2022/04/24 06:50:33;;;;;;;;;33.75;28.50;;;;;14.04;57.29;99450.41;5064318;28;46067;-61
2022/04/24 06:52:59;;;;;;;;;31.50;28.50;;;;;14.03;57.28;99454.06;5074897;28;45421;-60
2022/04/24 06:55:26;;;;;;;;;28.00;27.25;;;;;13.99;57.17;99457.13;5059839;27;45475;-59
2022/04/24 06:57:51;;;;;;;;;35.25;33.00;;;;;14.06;56.94;99450.25;5072442;27;45581;-61
2022/04/24 07:00:19;;;;;;;;;29.25;26.25;;;;;14.20;57.43;99459.75;5069427;28;46133;-61
2022/04/24 07:02:45;;;;;;;;;39.50;34.00;;;;;14.27;56.79;99455.53;5076426;27;45430;-60
2022/04/24 07:05:10;;;;;;;;;36.25;34.25;;;;;14.30;56.69;99450.75;5077110;27;45280;-60
2022/04/24 07:07:36;;;;;;;;;32.25;29.50;;;;;14.42;56.50;99460.34;5070128;27;46889;-61
2022/04/24 07:10:01;;;;;;;;;37.25;34.00;;;;;14.48;56.47;99455.47;5072838;27;46321;-61
2022/04/24 07:12:27;;;;;;;;;40.25;32.00;;;;;14.51;56.17;99464.06;5072997;28;45585;-62
2022/04/24 07:14:52;;;;;;;;;37.25;36.00;;;;;14.47;55.65;99445.75;5068307;28;45861;-61
2022/04/24 07:17:18;;;;;;;;;36.25;32.75;;;;;14.48;56.09;99437.59;5073883;27;45780;-61
2022/04/24 07:19:44;;;;;;;;;38.75;29.50;;;;;14.58;55.68;99464.34;5097369;27;46147;-60
2022/04/24 07:22:09;;;;;;;;;38.50;34.25;;;;;14.63;56.10;99462.97;5090307;27;45423;-62
2022/04/24 07:24:34;;;;;;;;;33.00;28.25;;;;;14.74;55.57;99470.84;5076743;27;45498;-60
2022/04/24 07:27:00;;;;;;;;;43.25;34.75;;;;;14.83;55.01;99473.66;5071736;27;45206;-58
2022/04/24 07:29:25;;;;;;;;;35.25;31.75;;;;;14.81;55.15;99475.63;5075369;27;46051;-61
2022/04/24 07:31:51;;;;;;;;;32.50;30.00;;;;;14.79;54.91;99482.97;5074226;27;47370;-60
2022/04/24 07:34:16;;;;;;;;;39.50;34.75;;;;;14.75;55.55;99483.25;5058917;27;45614;-58
2022/04/24 07:36:42;;;;;;;;;34.25;31.75;;;;;14.72;54.93;99462.13;5087326;27;45367;-59
2022/04/24 07:39:07;;;;;;;;;39.50;35.50;;;;;14.89;54.97;99490.03;5095299;27;46930;-68
2022/04/24 07:41:32;;;;;;;;;36.50;32.25;;;;;14.87;54.85;99483.13;5069905;27;45504;-66
2022/04/24 07:43:58;;;;;;;;;38.25;32.75;;;;;14.90;55.18;99490.88;5073677;27;45851;-60
2022/04/24 07:46:23;;;;;;;;;35.75;30.00;;;;;14.84;54.47;99489.56;5076642;27;45511;-60
2022/04/24 07:48:49;;;;;;;;;32.00;27.25;;;;;14.86;54.79;99494.81;5075290;27;46032;-60
2022/04/24 07:51:15;;;;;;;;;42.75;37.75;;;;;14.82;54.94;99485.34;5075092;28;45787;-59
2022/04/24 07:53:42;;;;;;;;;35.75;34.50;;;;;14.75;55.08;99485.09;5076580;27;45416;-59
2022/04/24 07:56:08;;;;;;;;;36.75;34.25;;;;;14.78;55.26;99492.81;5079676;27;45243;-60
2022/04/24 07:58:33;;;;;;;;;43.00;35.50;;;;;14.91;55.30;99497.91;5077738;27;46180;-60
2022/04/24 08:00:59;;;;;;;;;38.25;34.50;;;;;14.95;54.18;99499.31;5075306;28;45306;-60
2022/04/24 08:03:24;;;;;;;;;44.00;36.25;;;;;14.88;54.27;99493.69;5076639;27;45677;-60
2022/04/24 08:05:51;;;;;;;;;47.25;35.00;;;;;15.06;54.24;99507.22;5077074;27;49374;-58
2022/04/24 08:08:17;;;;;;;;;36.75;33.75;;;;;15.19;54.40;99512.28;5054323;27;47675;-60
2022/04/24 08:10:47;;;;;;;;;31.50;29.25;;;;;15.35;54.32;99512.53;5055631;28;45363;-60
2022/04/24 08:13:13;;;;;;;;;40.75;35.50;;;;;15.34;53.21;99511.69;5054465;28;45480;-59
2022/04/24 08:15:39;;;;;;;;;39.00;36.00;;;;;15.42;54.09;99512.84;5056222;28;45248;-60
2022/04/24 08:18:05;;;;;;;;;37.00;33.50;;;;;15.54;53.53;99517.06;5071111;27;45472;-60
2022/04/24 08:20:32;;;;;;;;;39.50;36.50;;;;;15.62;52.76;99509.16;5056848;27;45543;-59
2022/04/24 08:23:07;;;;;;;;;40.25;35.75;;;;;15.70;52.99;99509.28;5075902;27;45440;-58
2022/04/24 08:25:37;;;;;;;;;29.50;28.25;;;;;15.74;52.63;99510.69;5076581;27;45343;-57
2022/04/24 08:28:08;;;;;;;;;38.75;34.00;;;;;15.76;52.37;99506.03;5075952;27;45492;-59
2022/04/24 08:30:37;;;;;;;;;44.00;36.25;;;;;15.92;52.13;99511.63;5091362;27;45483;-58
2022/04/24 08:33:03;;;;;;;;;41.75;35.00;;;;;16.04;50.86;99506.94;5074391;28;45387;-59
2022/04/24 08:35:29;;;;;;;;;37.00;33.50;;;;;16.22;50.58;99512.34;5073956;28;45204;-59
2022/04/24 08:37:55;;;;;;;;;33.75;32.50;;;;;16.37;51.00;99513.53;5060659;27;46563;-59
2022/04/24 08:40:24;;;;;;;;;40.50;34.25;;;;;16.52;49.21;99514.72;5055552;28;45279;-58
2022/04/24 08:42:50;;;;;;;;;31.00;29.00;;;;;16.56;50.11;99511.75;5059294;28;45485;-60
2022/04/24 08:45:17;;;;;;;;;37.75;34.25;;;;;16.69;49.91;99506.91;5059065;27;45543;-60
2022/04/24 08:47:43;;;;;;;;;40.00;35.00;;;;;16.85;49.49;99498.19;5076595;27;45422;-59
2022/04/24 08:50:10;;;;;;;;;37.67;34.67;;;;;17.01;49.81;99517.97;5078841;27;45273;-59
2022/04/24 08:52:37;;;;;;;;;40.25;35.25;;;;;17.15;49.00;99515.75;5077670;28;45355;-60
2022/04/24 08:55:03;;;;;;;;;33.67;30.67;;;;;17.32;48.55;99517.59;5077956;27;45540;-59
2022/04/24 08:57:30;;;;;;;;;41.00;35.75;;;;;17.52;48.63;99524.47;5094675;27;45656;-60
2022/04/24 08:59:57;;;;;;;;;34.33;33.00;;;;;17.75;47.32;99516.78;5078648;27;45369;-60
2022/04/24 09:02:23;;;;;;;;;42.67;35.67;;;;;17.75;46.99;99511.38;5094506;27;45208;-57
2022/04/24 09:04:49;;;;;;;;;35.00;32.67;;;;;17.83;46.86;99502.50;5079342;28;45332;-59
2022/04/24 09:07:17;;;;;;;;;40.33;33.00;;;;;17.96;46.30;99521.75;5094227;27;47766;-59
2022/04/24 09:09:53;;;;;;;;;38.00;33.67;;;;;18.11;46.33;99519.34;5094384;27;45926;-58
2022/04/24 09:12:26;;;;;;;;;37.00;32.67;;;;;18.22;44.64;99527.13;5077308;27;45434;-59
2022/04/24 09:14:54;;;;;;;;;34.33;32.00;;;;;18.17;44.43;99519.53;5079379;27;45326;-65
2022/04/24 09:17:23;;;;;;;;;38.67;33.00;;;;;18.09;44.67;99522.16;5078870;27;46135;-60
2022/04/24 09:19:50;;;;;;;;;33.67;32.00;;;;;18.05;45.05;99515.44;5094493;27;45315;-58
2022/04/24 09:22:16;;;;;;;;;33.33;30.33;;;;;18.22;45.01;99519.88;5078654;27;45334;-60
2022/04/24 09:24:48;;;;;;;;;37.33;32.33;;;;;18.35;45.30;99521.28;5094196;27;45583;-59
2022/04/24 09:27:33;;;;;;;;;38.33;32.33;;;;;18.50;45.03;99536.69;5078950;27;46281;-59
2022/04/24 09:30:09;;;;;;;;;39.33;36.00;;;;;18.53;45.05;99512.13;5076772;27;45645;-60
2022/04/24 09:32:55;;;;;;;;;35.33;33.00;;;;;18.50;44.55;99535.84;5078162;27;45274;-60
2022/04/24 09:35:32;;;;;;;;;39.00;31.33;;;;;18.41;44.24;99510.72;5078495;27;45215;-60
2022/04/24 09:38:14;;;;;;;;;29.00;27.67;;;;;18.64;45.68;99520.94;5076450;27;46117;-59
2022/04/24 09:40:50;;;;;;;;;39.33;32.67;;;;;18.96;43.90;99533.63;5078042;27;45424;-60
2022/04/24 09:43:20;;;;;;;;;35.33;33.67;;;;;19.04;43.32;99539.06;5076716;28;45569;-59
2022/04/24 09:45:50;;;;;;;;;27.00;27.00;;;;;19.20;43.25;99539.06;5075447;28;45342;-59
2022/04/24 09:48:19;;;;;;;;;35.00;32.00;;;;;19.35;42.12;99537.41;5077820;27;45531;-58
2022/04/24 09:50:45;;;;;;;;;32.67;32.00;;;;;19.44;42.35;99533.69;5077923;27;45412;-59
2022/04/24 09:53:14;;;;;;;;;37.67;29.67;;;;;19.61;41.59;99526.47;5077080;27;45303;-59
2022/04/24 09:55:44;;;;;;;;;42.00;32.67;;;;;19.66;42.05;99540.31;5078239;27;45300;-59
2022/04/24 09:58:12;;;;;;;;;33.33;32.00;;;;;19.79;41.66;99534.38;5077854;27;46094;-62
2022/04/24 10:00:38;;;;;;;;;37.00;31.00;;;;;20.10;41.28;99549.84;5084824;27;45350;-59
2022/04/24 10:03:04;;;;;;;;;36.00;31.00;;;;;20.13;39.69;99552.19;5076789;27;45220;-60
2022/04/24 10:05:30;;;;;;;;;33.33;31.67;;;;;20.23;41.21;99552.84;5079207;27;45460;-59
2022/04/24 10:07:56;;;;;;;;;33.33;31.33;;;;;20.30;40.28;99546.56;5078955;27;45297;-58
2022/04/24 10:10:22;;;;;;;;;33.33;31.00;;;;;20.33;41.00;99548.94;5078089;28;45445;-60
2022/04/24 10:12:51;;;;;;;;;32.67;28.00;;;;;20.45;40.95;99549.44;5077585;27;45341;-58
2022/04/24 10:15:18;;;;;;;;;44.33;33.00;;;;;20.38;40.50;99534.91;5076341;27;45406;-62
2022/04/24 10:18:14;;;;;;;;;40.67;37.00;;;;;20.34;39.86;99557.88;5076001;28;45395;-61
2022/04/24 10:20:58;;;;;;;;;32.67;31.00;;;;;20.07;40.51;99563.69;5076194;28;45355;-58
2022/04/24 10:23:34;;;;;;;;;32.00;31.00;;;;;19.62;41.38;99567.78;5077811;27;45421;-58
2022/04/24 10:26:00;;;;;;;;;42.67;34.00;;;;;19.45;42.33;99565.03;5077416;27;45520;-58
2022/04/24 10:28:36;;;;;;;;;40.33;34.00;;;;;19.28;42.46;99571.44;5077551;28;45356;-60
2022/04/24 10:31:04;;;;;;;;;37.33;31.00;;;;;19.04;43.10;99563.31;5073855;27;45508;-59
2022/04/24 10:33:36;;;;;;;;;36.67;31.33;;;;;19.04;43.32;99574.09;5084171;27;45446;-59
2022/04/24 10:36:12;;;;;;;;;37.00;34.00;;;;;19.08;43.71;99559.25;5062751;28;45441;-60
2022/04/24 10:38:52;;;;;;;;;37.33;32.00;;;;;19.26;43.34;99581.53;5056731;28;45940;-60
2022/04/24 10:41:23;;;;;;;;;37.33;34.00;;;;;19.27;43.66;99577.84;5056863;28;45232;-61
2022/04/24 10:43:51;;;;;;;;;36.00;31.67;;;;;19.31;43.47;99583.75;5056755;28;45435;-59
2022/04/24 10:46:32;;;;;;;;;23.00;19.67;;;;;19.38;42.87;99580.19;5062777;28;45522;-60
2022/04/24 10:49:09;;;;;;;;;35.67;31.67;;;;;19.35;43.25;99572.44;5076835;27;45595;-60
2022/04/24 10:51:36;;;;;;;;;33.67;27.00;;;;;19.42;42.88;99586.97;5076637;28;45417;-59
2022/04/24 10:54:08;;;;;;;;;31.00;30.67;;;;;19.36;43.33;99578.69;5059603;27;45853;-61
2022/04/24 10:56:36;;;;;;;;;32.33;31.00;;;;;19.54;43.04;99594.72;5056840;28;45424;-59
2022/04/24 10:59:10;;;;;;;;;34.33;30.00;;;;;19.45;42.43;99589.31;5056220;28;46199;-58
2022/04/24 11:01:37;;;;;;;;;40.67;34.33;;;;;19.38;42.62;99588.28;5056437;28;45365;-61
2022/04/24 11:04:06;;;;;;;;;32.00;31.67;;;;;19.26;42.93;99591.47;5056378;28;45792;-58
2022/04/24 11:06:33;;;;;;;;;31.33;30.00;;;;;19.51;43.11;99606.66;5056581;28;45393;-60
2022/04/24 11:09:13;;;;;;;;;29.33;29.33;;;;;19.82;42.83;99597.97;5056695;28;45468;-60
2022/04/24 11:11:52;;;;;;;;;34.33;32.67;;;;;19.95;42.09;99584.78;5076150;27;45682;-58
2022/04/24 11:14:22;;;;;;;;;33.00;29.67;;;;;20.11;41.85;99597.41;5076855;27;45476;-59
2022/04/24 11:16:53;;;;;;;;;34.00;30.00;;;;;20.12;42.10;99609.91;5077284;27;45426;-59